createdAt,value
2018-09-16T00:00:35.712Z,4.40
2018-09-16T00:03:04.020Z,4.63
2018-09-16T00:05:32.339Z,5.20
2018-09-16T00:08:00.696Z,4.23
2018-09-16T00:10:29.188Z,4.93
2018-09-16T00:12:57.495Z,4.50
2018-09-16T00:15:25.814Z,4.63
2018-09-16T00:17:54.141Z,4.70
2018-09-16T00:20:22.646Z,4.80
2018-09-16T00:22:50.956Z,4.90
2018-09-16T00:25:19.293Z,4.40
2018-09-16T00:27:47.647Z,4.87
2018-09-16T00:30:16.005Z,4.50
2018-09-16T00:32:45.500Z,4.77
2018-09-16T00:35:15.228Z,4.37
2018-09-16T00:37:43.523Z,5.17
2018-09-16T00:40:11.836Z,4.33
2018-09-16T00:42:40.274Z,4.43
2018-09-16T00:45:09.317Z,4.33
2018-09-16T00:47:37.852Z,4.90
2018-09-16T00:50:06.517Z,4.77
2018-09-16T00:52:34.937Z,4.53
2018-09-16T00:55:03.266Z,5.07
2018-09-16T00:57:31.600Z,4.40
2018-09-16T00:59:59.949Z,4.60
2018-09-16T01:02:28.294Z,5.00
2018-09-16T01:04:56.616Z,4.60
2018-09-16T01:07:25.004Z,5.13
2018-09-16T01:09:53.307Z,5.00
2018-09-16T01:12:21.641Z,5.37
2018-09-16T01:14:49.956Z,4.57
2018-09-16T01:17:18.263Z,4.67
2018-09-16T01:19:47.809Z,4.43
2018-09-16T01:22:16.197Z,4.50
2018-09-16T01:24:44.582Z,4.77
2018-09-16T01:27:12.919Z,4.77
2018-09-16T01:29:41.224Z,4.73
2018-09-16T01:32:09.537Z,4.37
2018-09-16T01:34:37.833Z,4.80
2018-09-16T01:37:11.913Z,3.97
2018-09-16T01:39:40.224Z,3.70
2018-09-16T01:42:08.557Z,4.53
2018-09-16T01:44:36.909Z,4.20
2018-09-16T01:47:05.322Z,4.07
2018-09-16T01:49:33.625Z,4.10
2018-09-16T01:52:01.976Z,4.70
2018-09-16T01:54:30.301Z,5.20
2018-09-16T01:56:58.626Z,4.73
2018-09-16T01:59:26.997Z,4.63
2018-09-16T02:01:55.293Z,4.77
2018-09-16T02:04:23.624Z,4.33
2018-09-16T02:06:52.036Z,4.03
2018-09-16T02:09:20.373Z,4.07
2018-09-16T02:11:48.673Z,4.40
2018-09-16T02:14:16.970Z,4.60
2018-09-16T02:16:45.280Z,4.53
2018-09-16T02:19:13.589Z,5.83
2018-09-16T02:21:41.921Z,5.13
2018-09-16T02:24:10.276Z,5.13
2018-09-16T02:26:39.443Z,5.90
2018-09-16T02:29:07.894Z,5.20
2018-09-16T02:31:36.263Z,6.37
2018-09-16T02:34:04.608Z,6.93
2018-09-16T02:36:32.893Z,7.10
2018-09-16T02:39:01.233Z,6.80
2018-09-16T02:41:29.524Z,7.80
2018-09-16T02:43:57.893Z,8.47
2018-09-16T02:46:26.192Z,8.10
2018-09-16T02:48:54.421Z,7.53
2018-09-16T02:51:22.661Z,6.93
2018-09-16T02:53:50.910Z,6.27
2018-09-16T02:56:19.185Z,6.40
2018-09-16T02:58:47.474Z,6.47
2018-09-16T03:01:15.693Z,6.43
2018-09-16T03:03:43.929Z,6.03
2018-09-16T03:06:12.189Z,7.20
2018-09-16T03:08:40.437Z,6.53
2018-09-16T03:11:08.657Z,6.77
2018-09-16T03:13:36.924Z,7.40
2018-09-16T03:16:05.231Z,6.60
2018-09-16T03:18:33.569Z,7.17
2018-09-16T03:21:01.799Z,7.27
2018-09-16T03:23:30.020Z,6.90
2018-09-16T03:25:58.253Z,7.50
2018-09-16T03:28:26.585Z,6.57
2018-09-16T03:30:54.801Z,6.60
2018-09-16T03:33:23.041Z,7.00
2018-09-16T03:35:51.286Z,6.83
2018-09-16T03:38:19.524Z,6.97
2018-09-16T03:40:47.741Z,6.73
2018-09-16T03:43:16.012Z,7.40
2018-09-16T03:45:44.225Z,7.60
2018-09-16T03:48:12.471Z,7.60
2018-09-16T03:50:40.761Z,7.73
2018-09-16T03:53:09.094Z,7.80
2018-09-16T03:55:37.368Z,7.57
2018-09-16T03:58:05.608Z,6.83
2018-09-16T04:00:33.837Z,7.60
2018-09-16T04:03:02.061Z,8.03
2018-09-16T04:05:30.354Z,8.13
2018-09-16T04:07:58.607Z,7.80
2018-09-16T04:10:26.861Z,7.83
2018-09-16T04:12:55.073Z,8.57
2018-09-16T04:15:23.341Z,7.97
2018-09-16T04:17:51.630Z,7.83
2018-09-16T04:20:19.837Z,8.27
2018-09-16T04:22:48.089Z,8.50
2018-09-16T04:25:16.349Z,8.43
2018-09-16T04:27:44.589Z,8.47
2018-09-16T04:30:13.070Z,9.60
2018-09-16T04:32:41.425Z,9.50
2018-09-16T04:35:10.228Z,9.47
2018-09-16T04:37:39.309Z,9.57
2018-09-16T04:40:07.789Z,9.47
2018-09-16T04:42:36.089Z,10.20
2018-09-16T04:45:04.361Z,8.90
2018-09-16T04:47:32.610Z,10.00
2018-09-16T04:50:00.974Z,10.07
2018-09-16T04:52:29.208Z,10.63
2018-09-16T04:54:57.425Z,10.37
2018-09-16T04:57:25.685Z,9.57
2018-09-16T04:59:53.930Z,10.37
2018-09-16T05:02:22.202Z,9.87
2018-09-16T05:04:50.453Z,10.13
2018-09-16T05:07:18.676Z,10.60
2018-09-16T05:09:46.928Z,10.23
2018-09-16T05:12:15.175Z,10.13
2018-09-16T05:14:43.408Z,10.83
2018-09-16T05:17:11.717Z,11.30
2018-09-16T05:19:39.948Z,10.97
2018-09-16T05:22:08.226Z,11.67
2018-09-16T05:24:36.465Z,10.97
2018-09-16T05:27:04.793Z,11.70
2018-09-16T05:29:33.042Z,11.10
2018-09-16T05:32:01.278Z,11.97
2018-09-16T05:34:29.517Z,11.40
2018-09-16T05:36:57.766Z,11.17
2018-09-16T05:42:25.988Z,10.73
2018-09-16T05:44:54.273Z,11.87
2018-09-16T05:47:22.534Z,12.00
2018-09-16T05:49:50.901Z,12.07
2018-09-16T05:52:19.178Z,11.77
2018-09-16T05:54:47.405Z,12.37
2018-09-16T05:57:15.658Z,12.07
2018-09-16T05:59:43.899Z,12.90
2018-09-16T06:02:12.314Z,13.87
2018-09-16T06:04:40.585Z,13.27
2018-09-16T06:07:08.820Z,13.43
2018-09-16T06:09:37.077Z,14.50
2018-09-16T06:12:05.305Z,13.13
2018-09-16T06:14:33.557Z,14.93
2018-09-16T06:17:01.809Z,13.53
2018-09-16T06:19:30.197Z,13.90
2018-09-16T06:21:58.557Z,13.17
2018-09-16T06:24:26.849Z,14.67
2018-09-16T06:26:55.111Z,14.23
2018-09-16T06:29:23.341Z,14.60
2018-09-16T06:31:51.576Z,12.07
2018-09-16T06:34:19.846Z,13.53
2018-09-16T06:36:48.122Z,12.63
2018-09-16T06:39:16.397Z,13.30
2018-09-16T06:41:44.620Z,13.07
2018-09-16T06:44:12.933Z,12.83
2018-09-16T06:46:41.189Z,12.20
2018-09-16T06:49:09.426Z,12.50
2018-09-16T06:51:38.089Z,12.43
2018-09-16T06:54:06.414Z,12.33
2018-09-16T06:56:34.669Z,12.47
2018-09-16T06:59:02.934Z,11.93
2018-09-16T07:01:31.173Z,12.20
2018-09-16T07:03:59.501Z,11.73
2018-09-16T07:06:27.806Z,11.40
2018-09-16T07:08:56.057Z,11.90
2018-09-16T07:11:24.290Z,11.73
2018-09-16T07:13:52.556Z,11.60
2018-09-16T07:16:20.902Z,11.10
2018-09-16T07:18:49.209Z,11.13
2018-09-16T07:21:17.485Z,10.20
2018-09-16T07:23:53.408Z,9.33
2018-09-16T07:26:21.665Z,9.03
2018-09-16T07:28:49.904Z,8.87
2018-09-16T07:31:18.126Z,8.70
2018-09-16T07:33:46.441Z,7.47
2018-09-16T07:36:33.757Z,7.70
2018-09-16T07:39:02.001Z,6.73
2018-09-16T07:41:30.221Z,7.10
2018-09-16T07:43:58.478Z,5.90
2018-09-16T07:46:26.721Z,6.10
2018-09-16T07:48:54.941Z,4.93
2018-09-16T07:51:23.196Z,4.73
2018-09-16T07:53:51.424Z,4.50
2018-09-16T07:56:19.649Z,4.67
2018-09-16T07:58:47.888Z,4.40
2018-09-16T08:01:16.134Z,4.10
2018-09-16T08:03:44.361Z,4.00
2018-09-16T08:06:12.701Z,4.00
2018-09-16T08:08:40.841Z,3.57
2018-09-16T08:11:09.381Z,4.43
2018-09-16T08:13:37.636Z,3.53
2018-09-16T08:16:06.035Z,3.83
2018-09-16T08:18:35.346Z,3.57
2018-09-16T08:21:03.751Z,3.93
2018-09-16T08:23:31.894Z,3.47
2018-09-16T08:26:00.133Z,3.63
2018-09-16T08:28:28.404Z,3.07
2018-09-16T08:30:56.683Z,3.37
2018-09-16T08:33:24.885Z,2.90
2018-09-16T08:35:53.117Z,3.20
2018-09-16T08:38:21.370Z,3.23
2018-09-16T08:40:49.637Z,2.80
2018-09-16T08:43:17.913Z,3.10
2018-09-16T08:45:46.176Z,2.95
2018-09-16T08:48:14.381Z,3.02
2018-09-16T08:50:42.670Z,2.80
2018-09-16T08:53:10.911Z,3.20
2018-09-16T08:55:39.139Z,3.00
2018-09-16T08:58:07.480Z,2.90
2018-09-16T09:00:35.809Z,3.80
2018-09-16T09:03:04.133Z,3.00
2018-09-16T09:05:32.393Z,2.72
2018-09-16T09:08:00.654Z,2.92
2018-09-16T09:10:28.945Z,2.58
2018-09-16T09:12:57.250Z,2.67
2018-09-16T09:15:25.505Z,2.80
2018-09-16T09:17:53.762Z,2.87
2018-09-16T09:20:22.017Z,2.80
2018-09-16T09:22:50.286Z,2.80
2018-09-16T09:25:18.528Z,2.93
2018-09-16T09:27:46.745Z,2.80
2018-09-16T09:30:14.990Z,2.50
2018-09-16T09:32:43.252Z,2.60
2018-09-16T09:35:11.504Z,2.90
2018-09-16T09:37:39.813Z,2.67
2018-09-16T09:40:08.021Z,2.45
2018-09-16T09:42:36.300Z,2.65
2018-09-16T09:45:04.509Z,2.90
2018-09-16T09:47:32.773Z,3.08
2018-09-16T09:50:01.013Z,3.02
2018-09-16T09:52:29.257Z,2.90
2018-09-16T09:54:57.486Z,2.70
2018-09-16T09:57:25.737Z,3.10
2018-09-16T09:59:53.964Z,2.77
2018-09-16T10:02:22.210Z,2.70
2018-09-16T10:04:50.483Z,2.67
2018-09-16T10:07:24.370Z,2.95
2018-09-16T10:09:52.611Z,3.08
2018-09-16T10:12:20.878Z,2.75
2018-09-16T10:14:49.405Z,3.17
2018-09-16T10:17:17.831Z,3.00
2018-09-16T10:19:46.097Z,3.35
2018-09-16T10:22:14.453Z,2.52
2018-09-16T10:24:42.685Z,2.80
2018-09-16T10:27:10.942Z,3.10
2018-09-16T10:29:39.206Z,4.40
2018-09-16T10:32:07.470Z,3.30
2018-09-16T10:34:35.708Z,4.70
2018-09-16T10:37:03.985Z,4.30
2018-09-16T10:39:32.218Z,3.42
2018-09-16T10:42:00.474Z,5.80
2018-09-16T10:44:28.793Z,4.05
2018-09-16T10:46:57.041Z,3.20
2018-09-16T10:49:25.273Z,3.70
2018-09-16T10:51:53.525Z,3.20
2018-09-16T10:54:21.753Z,2.10
2018-09-16T10:56:49.974Z,2.20
2018-09-16T10:59:18.233Z,2.60
2018-09-16T11:01:46.477Z,3.02
2018-09-16T11:04:14.726Z,3.60
2018-09-16T11:06:42.973Z,4.28
2018-09-16T11:09:11.363Z,3.45
2018-09-16T11:11:39.669Z,3.08
2018-09-16T11:14:07.917Z,3.00
2018-09-16T11:16:36.194Z,3.98
2018-09-16T11:19:04.457Z,2.90
2018-09-16T11:21:32.745Z,2.20
2018-09-16T11:24:01.310Z,2.60
2018-09-16T11:26:29.521Z,2.80
2018-09-16T11:28:57.754Z,2.12
2018-09-16T11:31:26.088Z,2.30
2018-09-16T11:33:54.337Z,3.77
2018-09-16T11:36:22.588Z,2.10
2018-09-16T11:38:50.857Z,3.20
2018-09-16T11:41:19.085Z,2.10
2018-09-16T11:43:47.398Z,2.47
2018-09-16T11:46:15.653Z,2.58
2018-09-16T11:48:43.857Z,4.37
2018-09-16T11:51:12.111Z,2.20
2018-09-16T11:53:40.355Z,2.08
2018-09-16T11:56:08.585Z,1.90
2018-09-16T11:58:36.813Z,2.33
2018-09-16T12:01:05.045Z,2.10
2018-09-16T12:03:33.296Z,2.45
2018-09-16T12:06:01.553Z,2.30
2018-09-16T12:08:29.793Z,3.27
2018-09-16T12:10:58.140Z,3.47
2018-09-16T12:13:26.437Z,4.90
2018-09-16T12:15:54.693Z,3.35
2018-09-16T12:18:22.974Z,2.55
2018-09-16T12:20:51.234Z,5.10
2018-09-16T12:23:19.452Z,3.25
2018-09-16T12:25:47.743Z,3.17
2018-09-16T12:28:15.989Z,4.22
2018-09-16T12:30:44.260Z,4.12
2018-09-16T12:33:12.485Z,3.05
2018-09-16T12:35:40.885Z,2.70
2018-09-16T12:38:09.130Z,2.72
2018-09-16T12:40:43.156Z,3.00
2018-09-16T12:43:11.465Z,2.70
2018-09-16T12:45:39.733Z,3.30
2018-09-16T12:48:08.035Z,5.97
2018-09-16T12:50:36.342Z,3.20
2018-09-16T12:53:04.584Z,3.27
2018-09-16T12:55:32.838Z,3.10
2018-09-16T12:58:01.160Z,3.87
2018-09-16T13:00:29.411Z,3.83
2018-09-16T13:02:57.657Z,5.47
2018-09-16T13:05:25.881Z,3.70
2018-09-16T13:07:54.120Z,3.60
2018-09-16T13:10:22.364Z,3.52
2018-09-16T13:12:50.609Z,4.00
2018-09-16T13:15:18.863Z,3.50
2018-09-16T13:17:47.145Z,3.70
2018-09-16T13:20:15.389Z,3.33
2018-09-16T13:22:43.638Z,3.65
2018-09-16T13:25:11.941Z,3.37
2018-09-16T13:27:40.582Z,3.30
2018-09-16T13:30:08.834Z,3.75
2018-09-16T13:32:37.142Z,4.55
2018-09-16T13:35:06.085Z,5.20
2018-09-16T13:37:34.321Z,4.45
2018-09-16T13:40:18.835Z,4.83
2018-09-16T13:42:47.085Z,4.95
2018-09-16T13:45:31.355Z,4.55
2018-09-16T13:48:04.153Z,4.03
2018-09-16T13:50:32.378Z,4.30
2018-09-16T13:53:00.651Z,6.87
2018-09-16T13:55:28.874Z,4.60
2018-09-16T13:57:57.110Z,4.80
2018-09-16T14:00:25.361Z,4.92
2018-09-16T14:02:53.627Z,5.00
2018-09-16T14:05:21.853Z,4.87
2018-09-16T14:07:50.113Z,5.80
2018-09-16T14:10:18.357Z,5.05
2018-09-16T14:12:46.617Z,4.87
2018-09-16T14:15:14.883Z,5.43
2018-09-16T14:17:43.141Z,6.93
2018-09-16T14:23:21.392Z,4.93
2018-09-16T14:25:49.634Z,4.73
2018-09-16T14:28:17.879Z,4.90
2018-09-16T14:30:46.151Z,5.00
2018-09-16T14:33:14.376Z,4.67
2018-09-16T14:35:55.417Z,3.97
2018-09-16T14:38:23.638Z,4.63
2018-09-16T14:40:51.865Z,4.20
2018-09-16T14:43:20.098Z,4.70
2018-09-16T14:45:48.376Z,5.03
2018-09-16T14:48:16.626Z,3.90
2018-09-16T14:50:44.844Z,4.20
2018-09-16T14:53:13.095Z,5.37
2018-09-16T14:55:41.341Z,3.90
2018-09-16T14:58:09.561Z,4.03
2018-09-16T15:00:37.793Z,4.37
2018-09-16T15:03:06.034Z,4.20
2018-09-16T15:05:34.301Z,3.97
2018-09-16T15:08:02.565Z,3.67
2018-09-16T15:10:30.814Z,4.07
2018-09-16T15:12:59.038Z,3.10
2018-09-16T15:15:27.261Z,4.03
2018-09-16T15:17:55.518Z,3.27
2018-09-16T15:20:23.745Z,2.90
2018-09-16T15:22:51.974Z,2.67
2018-09-16T15:25:20.224Z,2.57
2018-09-16T15:27:48.470Z,3.30
2018-09-16T15:30:16.811Z,3.70
2018-09-16T15:32:44.953Z,5.20
2018-09-16T15:35:13.161Z,2.90
2018-09-16T15:37:41.386Z,3.33
2018-09-16T15:40:09.666Z,2.80
2018-09-16T15:42:37.896Z,3.10
2018-09-16T15:45:06.146Z,3.47
2018-09-16T15:47:34.386Z,4.00
2018-09-16T15:50:02.662Z,3.23
2018-09-16T15:52:30.871Z,3.10
2018-09-16T15:54:59.116Z,4.37
2018-09-16T15:57:27.349Z,5.17
2018-09-16T15:59:55.572Z,4.13
2018-09-16T16:02:23.905Z,2.87
2018-09-16T16:04:52.213Z,2.93
2018-09-16T16:07:20.434Z,5.13
2018-09-16T16:09:48.694Z,2.67
2018-09-16T16:12:16.969Z,2.87
2018-09-16T16:14:45.271Z,2.80
2018-09-16T16:17:13.496Z,2.70
2018-09-16T16:19:41.757Z,4.40
2018-09-16T16:22:09.985Z,2.73
2018-09-16T16:24:38.240Z,3.03
2018-09-16T16:27:06.690Z,3.60
2018-09-16T16:29:35.318Z,3.40
2018-09-16T16:32:03.570Z,3.20
2018-09-16T16:34:31.811Z,3.07
2018-09-16T16:37:00.117Z,3.53
2018-09-16T16:39:28.377Z,3.57
2018-09-16T16:41:56.662Z,3.30
2018-09-16T16:44:24.860Z,3.60
2018-09-16T16:46:53.109Z,3.00
2018-09-16T16:49:21.361Z,2.93
2018-09-16T16:51:49.657Z,3.60
2018-09-16T16:54:17.976Z,3.53
2018-09-16T16:56:46.194Z,3.20
2018-09-16T16:59:14.454Z,3.77
2018-09-16T17:01:42.682Z,5.20
2018-09-16T17:04:10.961Z,5.10
2018-09-16T17:06:39.181Z,4.90
2018-09-16T17:09:08.430Z,4.60
2018-09-16T17:11:36.663Z,3.47
2018-09-16T17:14:04.909Z,3.70
2018-09-16T17:16:33.379Z,3.27
2018-09-16T17:19:02.525Z,3.23
2018-09-16T17:21:30.794Z,3.07
2018-09-16T17:23:59.018Z,3.10
2018-09-16T17:26:27.249Z,2.77
2018-09-16T17:28:55.521Z,3.03
2018-09-16T17:31:23.722Z,2.80
2018-09-16T17:33:51.964Z,3.03
2018-09-16T17:36:20.197Z,2.90
2018-09-16T17:38:48.421Z,2.87
2018-09-16T17:41:16.801Z,3.17
2018-09-16T17:43:45.743Z,3.50
2018-09-16T17:46:13.440Z,3.57
2018-09-16T17:48:41.754Z,3.30
2018-09-16T17:51:09.993Z,4.03
2018-09-16T17:53:38.241Z,3.90
2018-09-16T17:56:06.505Z,4.03
2018-09-16T17:58:34.793Z,4.10
2018-09-16T18:01:03.063Z,4.30
2018-09-16T18:03:31.323Z,3.63
2018-09-16T18:05:59.617Z,3.97
2018-09-16T18:08:33.276Z,4.00
2018-09-16T18:11:01.521Z,4.07
2018-09-16T18:13:29.746Z,3.90
2018-09-16T18:15:58.009Z,4.23
2018-09-16T18:18:26.262Z,4.30
2018-09-16T18:20:54.513Z,4.30
2018-09-16T18:23:22.866Z,4.13
2018-09-16T18:25:51.013Z,4.00
2018-09-16T18:28:19.252Z,3.80
2018-09-16T18:30:47.495Z,3.80
2018-09-16T18:33:15.714Z,3.90
2018-09-16T18:35:43.977Z,3.50
2018-09-16T18:38:12.209Z,4.13
2018-09-16T18:40:40.457Z,3.50
2018-09-16T18:43:08.755Z,4.00
2018-09-16T18:45:36.913Z,4.83
2018-09-16T18:48:05.337Z,4.53
2018-09-16T18:50:33.627Z,4.37
2018-09-16T18:53:01.874Z,5.27
2018-09-16T18:55:30.205Z,5.83
2018-09-16T18:57:58.580Z,5.17
2018-09-16T19:00:26.939Z,5.30
2018-09-16T19:02:55.161Z,6.97
2018-09-16T19:05:23.405Z,6.37
2018-09-16T19:07:51.981Z,6.93
2018-09-16T19:10:20.345Z,6.23
2018-09-16T19:12:48.595Z,7.00
2018-09-16T19:15:16.988Z,7.47
2018-09-16T19:17:45.213Z,8.10
2018-09-16T19:20:13.483Z,8.50
2018-09-16T19:22:41.745Z,7.30
2018-09-16T19:25:09.969Z,7.20
2018-09-16T19:27:38.246Z,7.47
2018-09-16T19:30:06.565Z,7.80
2018-09-16T19:32:34.889Z,7.50
2018-09-16T19:35:03.137Z,7.03
2018-09-16T19:37:31.377Z,7.20
2018-09-16T19:39:59.663Z,7.13
2018-09-16T19:42:27.942Z,7.30
2018-09-16T19:44:56.185Z,7.10
2018-09-16T19:47:24.441Z,7.03
2018-09-16T19:49:52.699Z,7.40
2018-09-16T19:52:20.909Z,6.60
2018-09-16T19:54:49.161Z,6.80
2018-09-16T19:57:17.435Z,6.57
2018-09-16T19:59:45.718Z,7.00
2018-09-16T20:02:13.965Z,6.87
2018-09-16T20:04:42.235Z,7.47
2018-09-16T20:07:10.506Z,8.30
2018-09-16T20:09:38.790Z,7.70
2018-09-16T20:12:07.078Z,8.40
2018-09-16T20:14:35.317Z,7.93
2018-09-16T20:17:03.569Z,7.40
2018-09-16T20:19:31.853Z,7.90
2018-09-16T20:22:00.083Z,7.47
2018-09-16T20:24:28.317Z,7.40
2018-09-16T20:26:56.589Z,7.93
2018-09-16T20:29:24.828Z,7.90
2018-09-16T20:31:55.075Z,6.67
2018-09-16T20:34:23.901Z,8.27
2018-09-16T20:36:52.241Z,7.87
2018-09-16T20:39:20.570Z,7.50
2018-09-16T20:41:48.830Z,7.87
2018-09-16T20:44:17.077Z,8.13
2018-09-16T20:46:45.329Z,6.97
2018-09-16T20:49:14.769Z,6.77
2018-09-16T20:51:43.034Z,7.00
2018-09-16T20:54:11.309Z,7.03
2018-09-16T20:56:39.637Z,6.30
2018-09-16T20:59:07.896Z,5.97
2018-09-16T21:01:36.130Z,5.60
2018-09-16T21:04:04.793Z,6.03
2018-09-16T21:06:33.042Z,6.40
2018-09-16T21:09:01.269Z,6.77
2018-09-16T21:11:29.545Z,6.40
2018-09-16T21:13:57.807Z,6.50
2018-09-16T21:16:26.025Z,5.90
2018-09-16T21:18:57.806Z,5.63
2018-09-16T21:21:26.037Z,5.97
2018-09-16T21:23:54.326Z,6.03
2018-09-16T21:26:22.684Z,6.03
2018-09-16T21:28:50.895Z,6.13
2018-09-16T21:31:19.149Z,6.07
2018-09-16T21:33:47.369Z,5.90
2018-09-16T21:36:15.622Z,6.43
2018-09-16T21:38:43.929Z,6.40
2018-09-16T21:41:12.186Z,6.43
2018-09-16T21:43:40.426Z,6.10
2018-09-16T21:46:08.683Z,5.80
2018-09-16T21:48:36.943Z,5.73
2018-09-16T21:51:05.222Z,5.50
2018-09-16T21:53:56.381Z,6.03
2018-09-16T21:56:24.608Z,5.30
2018-09-16T21:58:52.841Z,5.57
2018-09-16T22:01:21.081Z,5.83
2018-09-16T22:03:49.317Z,5.70
2018-09-16T22:06:17.565Z,5.20
2018-09-16T22:08:45.846Z,5.70
2018-09-16T22:11:14.088Z,5.50
2018-09-16T22:13:42.340Z,5.60
2018-09-16T22:16:10.577Z,5.27
2018-09-16T22:18:38.853Z,5.67
2018-09-16T22:21:07.074Z,5.77
2018-09-16T22:23:35.322Z,5.90
2018-09-16T22:26:03.598Z,5.80
2018-09-16T22:28:31.873Z,5.83
2018-09-16T22:31:00.162Z,6.33
2018-09-16T22:33:28.392Z,5.70
2018-09-16T22:35:56.634Z,6.23
2018-09-16T22:38:24.877Z,6.50
2018-09-16T22:40:53.130Z,6.10
2018-09-16T22:43:21.351Z,5.63
2018-09-16T22:45:49.647Z,5.27
2018-09-16T22:48:17.880Z,5.80
2018-09-16T22:50:46.145Z,5.53
2018-09-16T22:53:14.375Z,5.30
2018-09-16T22:55:42.614Z,5.53
2018-09-16T22:58:10.869Z,6.10
2018-09-16T23:00:39.097Z,5.67
2018-09-16T23:03:07.308Z,5.70
2018-09-16T23:05:35.553Z,6.03
2018-09-16T23:08:03.801Z,5.40
2018-09-16T23:10:32.017Z,6.10
2018-09-16T23:13:00.310Z,5.93
2018-09-16T23:15:28.542Z,5.77
2018-09-16T23:17:56.786Z,5.50
2018-09-16T23:20:25.037Z,5.83
2018-09-16T23:22:53.303Z,5.93
2018-09-16T23:25:21.549Z,6.13
2018-09-16T23:27:49.805Z,5.97
2018-09-16T23:30:18.065Z,5.53
2018-09-16T23:32:46.307Z,6.07
2018-09-16T23:35:14.554Z,6.30
2018-09-16T23:37:42.901Z,6.30
2018-09-16T23:40:11.142Z,6.23
2018-09-16T23:42:39.381Z,5.73
2018-09-16T23:45:07.726Z,6.23
2018-09-16T23:47:35.994Z,5.83
2018-09-16T23:50:04.282Z,5.50
2018-09-16T23:52:32.543Z,5.60
2018-09-16T23:55:00.845Z,5.70
2018-09-16T23:57:29.098Z,5.87
2018-09-16T23:59:57.477Z,6.17
